sensor_id;sensor_type;location;lat;lon;timestamp;P1;durP1;ratioP1;P2;durP2;ratioP2
10144;SDS011;5113;41.822;23.564;2023-08-21T00:00:35;10.07;;;7.70;;
10144;SDS011;5113;41.822;23.564;2023-08-21T00:03:41;8.27;;;7.47;;
10144;SDS011;5113;41.822;23.564;2023-08-21T00:06:48;8.27;;;7.00;;
10144;SDS011;5113;41.822;23.564;2023-08-21T00:09:56;11.00;;;8.33;;
10144;SDS011;5113;41.822;23.564;2023-08-21T00:13:02;8.83;;;7.93;;
10144;SDS011;5113;41.822;23.564;2023-08-21T00:16:08;7.70;;;6.83;;
10144;SDS011;5113;41.822;23.564;2023-08-21T00:19:15;8.63;;;7.73;;
10144;SDS011;5113;41.822;23.564;2023-08-21T00:22:21;8.47;;;7.67;;
10144;SDS011;5113;41.822;23.564;2023-08-21T00:25:29;9.67;;;8.10;;
10144;SDS011;5113;41.822;23.564;2023-08-21T00:28:35;9.07;;;8.13;;
10144;SDS011;5113;41.822;23.564;2023-08-21T00:31:41;8.80;;;7.90;;
10144;SDS011;5113;41.822;23.564;2023-08-21T00:34:48;8.00;;;7.30;;
10144;SDS011;5113;41.822;23.564;2023-08-21T00:37:54;8.77;;;7.10;;
10144;SDS011;5113;41.822;23.564;2023-08-21T00:41:02;10.37;;;8.00;;
10144;SDS011;5113;41.822;23.564;2023-08-21T00:44:08;9.37;;;8.30;;
10144;SDS011;5113;41.822;23.564;2023-08-21T00:47:15;8.83;;;7.87;;
10144;SDS011;5113;41.822;23.564;2023-08-21T00:50:21;8.93;;;8.03;;
10144;SDS011;5113;41.822;23.564;2023-08-21T00:53:28;9.20;;;8.30;;
10144;SDS011;5113;41.822;23.564;2023-08-21T00:56:36;9.80;;;8.10;;
10144;SDS011;5113;41.822;23.564;2023-08-21T00:59:43;11.80;;;8.43;;
10144;SDS011;5113;41.822;23.564;2023-08-21T01:02:49;8.50;;;7.70;;
10144;SDS011;5113;41.822;23.564;2023-08-21T01:05:55;9.03;;;8.13;;
10144;SDS011;5113;41.822;23.564;2023-08-21T01:09:04;11.03;;;8.53;;
10144;SDS011;5113;41.822;23.564;2023-08-21T01:12:19;9.30;;;8.37;;
10144;SDS011;5113;41.822;23.564;2023-08-21T01:15:31;8.67;;;7.77;;
10144;SDS011;5113;41.822;23.564;2023-08-21T01:18:38;8.97;;;8.17;;
10144;SDS011;5113;41.822;23.564;2023-08-21T01:21:45;9.37;;;8.47;;
10144;SDS011;5113;41.822;23.564;2023-08-21T01:24:52;11.77;;;8.97;;
10144;SDS011;5113;41.822;23.564;2023-08-21T01:27:59;8.63;;;7.77;;
10144;SDS011;5113;41.822;23.564;2023-08-21T01:31:07;11.93;;;8.13;;
10144;SDS011;5113;41.822;23.564;2023-08-21T01:34:17;10.73;;;8.37;;
10144;SDS011;5113;41.822;23.564;2023-08-21T01:37:25;9.20;;;8.30;;
10144;SDS011;5113;41.822;23.564;2023-08-21T01:40:35;9.90;;;8.77;;
10144;SDS011;5113;41.822;23.564;2023-08-21T01:43:41;9.43;;;8.30;;
10144;SDS011;5113;41.822;23.564;2023-08-21T01:46:48;9.60;;;8.03;;
10144;SDS011;5113;41.822;23.564;2023-08-21T01:49:54;10.97;;;8.40;;
10144;SDS011;5113;41.822;23.564;2023-08-21T01:53:00;12.10;;;8.90;;
10144;SDS011;5113;41.822;23.564;2023-08-21T01:56:08;9.50;;;8.50;;
10144;SDS011;5113;41.822;23.564;2023-08-21T01:59:16;9.73;;;8.73;;
10144;SDS011;5113;41.822;23.564;2023-08-21T02:02:22;10.30;;;8.83;;
10144;SDS011;5113;41.822;23.564;2023-08-21T02:05:28;9.73;;;8.77;;
10144;SDS011;5113;41.822;23.564;2023-08-21T02:08:35;9.47;;;7.83;;
10144;SDS011;5113;41.822;23.564;2023-08-21T02:11:43;10.30;;;9.13;;
10144;SDS011;5113;41.822;23.564;2023-08-21T02:14:49;9.10;;;8.23;;
10144;SDS011;5113;41.822;23.564;2023-08-21T02:17:55;12.07;;;8.60;;
10144;SDS011;5113;41.822;23.564;2023-08-21T02:21:02;10.57;;;9.10;;
10144;SDS011;5113;41.822;23.564;2023-08-21T02:24:08;9.97;;;8.97;;
10144;SDS011;5113;41.822;23.564;2023-08-21T02:27:16;10.40;;;9.00;;
10144;SDS011;5113;41.822;23.564;2023-08-21T02:30:22;11.33;;;8.47;;
10144;SDS011;5113;41.822;23.564;2023-08-21T02:33:29;11.87;;;8.90;;
10144;SDS011;5113;41.822;23.564;2023-08-21T02:36:36;12.30;;;9.60;;
10144;SDS011;5113;41.822;23.564;2023-08-21T02:39:42;10.07;;;8.37;;
10144;SDS011;5113;41.822;23.564;2023-08-21T02:42:50;9.63;;;8.50;;
10144;SDS011;5113;41.822;23.564;2023-08-21T02:45:56;9.77;;;8.43;;
10144;SDS011;5113;41.822;23.564;2023-08-21T02:49:02;10.53;;;8.67;;
10144;SDS011;5113;41.822;23.564;2023-08-21T02:52:08;8.53;;;7.60;;
10144;SDS011;5113;41.822;23.564;2023-08-21T02:55:15;10.53;;;8.47;;
10144;SDS011;5113;41.822;23.564;2023-08-21T02:58:22;11.20;;;9.50;;
10144;SDS011;5113;41.822;23.564;2023-08-21T03:01:29;10.30;;;8.77;;
10144;SDS011;5113;41.822;23.564;2023-08-21T03:04:35;11.03;;;9.83;;
10144;SDS011;5113;41.822;23.564;2023-08-21T03:07:42;11.17;;;9.80;;
10144;SDS011;5113;41.822;23.564;2023-08-21T03:10:48;11.90;;;10.70;;
10144;SDS011;5113;41.822;23.564;2023-08-21T03:13:56;12.03;;;9.60;;
10144;SDS011;5113;41.822;23.564;2023-08-21T03:17:02;12.80;;;9.80;;
10144;SDS011;5113;41.822;23.564;2023-08-21T03:20:09;10.57;;;8.87;;
10144;SDS011;5113;41.822;23.564;2023-08-21T03:23:16;10.50;;;9.40;;
10144;SDS011;5113;41.822;23.564;2023-08-21T03:26:22;10.30;;;9.23;;
10144;SDS011;5113;41.822;23.564;2023-08-21T03:29:30;13.23;;;9.53;;
10144;SDS011;5113;41.822;23.564;2023-08-21T03:32:36;10.67;;;9.57;;
10144;SDS011;5113;41.822;23.564;2023-08-21T03:35:43;12.83;;;9.40;;
10144;SDS011;5113;41.822;23.564;2023-08-21T03:38:49;9.90;;;8.90;;
10144;SDS011;5113;41.822;23.564;2023-08-21T03:41:56;10.87;;;8.93;;
10144;SDS011;5113;41.822;23.564;2023-08-21T03:45:04;11.63;;;9.77;;
10144;SDS011;5113;41.822;23.564;2023-08-21T03:48:11;12.27;;;9.90;;
10144;SDS011;5113;41.822;23.564;2023-08-21T03:51:18;11.70;;;10.43;;
10144;SDS011;5113;41.822;23.564;2023-08-21T03:54:24;13.00;;;10.10;;
10144;SDS011;5113;41.822;23.564;2023-08-21T03:57:31;13.73;;;9.63;;
10144;SDS011;5113;41.822;23.564;2023-08-21T04:00:38;14.90;;;9.77;;
10144;SDS011;5113;41.822;23.564;2023-08-21T04:03:44;14.30;;;10.53;;
10144;SDS011;5113;41.822;23.564;2023-08-21T04:06:50;12.37;;;9.97;;
10144;SDS011;5113;41.822;23.564;2023-08-21T04:09:57;12.47;;;10.70;;
10144;SDS011;5113;41.822;23.564;2023-08-21T04:13:03;12.73;;;10.67;;
10144;SDS011;5113;41.822;23.564;2023-08-21T04:16:11;13.00;;;10.97;;
10144;SDS011;5113;41.822;23.564;2023-08-21T04:19:17;11.40;;;9.63;;
10144;SDS011;5113;41.822;23.564;2023-08-21T04:22:24;11.43;;;9.97;;
10144;SDS011;5113;41.822;23.564;2023-08-21T04:25:30;14.57;;;11.23;;
10144;SDS011;5113;41.822;23.564;2023-08-21T04:28:37;10.87;;;9.70;;
10144;SDS011;5113;41.822;23.564;2023-08-21T04:31:44;14.27;;;10.33;;
10144;SDS011;5113;41.822;23.564;2023-08-21T04:34:51;12.73;;;11.27;;
10144;SDS011;5113;41.822;23.564;2023-08-21T04:37:58;16.30;;;11.20;;
10144;SDS011;5113;41.822;23.564;2023-08-21T04:41:07;17.90;;;12.17;;
10144;SDS011;5113;41.822;23.564;2023-08-21T04:44:14;13.77;;;11.80;;
10144;SDS011;5113;41.822;23.564;2023-08-21T04:47:22;17.63;;;12.47;;
10144;SDS011;5113;41.822;23.564;2023-08-21T04:50:30;15.03;;;11.40;;
10144;SDS011;5113;41.822;23.564;2023-08-21T04:53:37;13.23;;;11.50;;
10144;SDS011;5113;41.822;23.564;2023-08-21T04:56:44;16.20;;;12.80;;
10144;SDS011;5113;41.822;23.564;2023-08-21T04:59:50;18.10;;;12.77;;
10144;SDS011;5113;41.822;23.564;2023-08-21T05:02:58;14.23;;;12.47;;
10144;SDS011;5113;41.822;23.564;2023-08-21T05:06:04;14.23;;;12.83;;
10144;SDS011;5113;41.822;23.564;2023-08-21T05:09:10;19.00;;;14.30;;
10144;SDS011;5113;41.822;23.564;2023-08-21T05:12:17;15.60;;;13.33;;
10144;SDS011;5113;41.822;23.564;2023-08-21T05:15:23;14.73;;;12.83;;
10144;SDS011;5113;41.822;23.564;2023-08-21T05:18:31;15.83;;;11.90;;
10144;SDS011;5113;41.822;23.564;2023-08-21T05:21:37;16.07;;;11.90;;
10144;SDS011;5113;41.822;23.564;2023-08-21T05:24:43;40.40;;;34.37;;
10144;SDS011;5113;41.822;23.564;2023-08-21T05:27:51;17.77;;;15.30;;
10144;SDS011;5113;41.822;23.564;2023-08-21T05:30:58;17.37;;;13.67;;
10144;SDS011;5113;41.822;23.564;2023-08-21T05:34:05;13.67;;;12.00;;
10144;SDS011;5113;41.822;23.564;2023-08-21T05:37:12;19.10;;;11.63;;
10144;SDS011;5113;41.822;23.564;2023-08-21T05:40:18;12.87;;;11.23;;
10144;SDS011;5113;41.822;23.564;2023-08-21T05:43:24;17.47;;;13.73;;
10144;SDS011;5113;41.822;23.564;2023-08-21T05:46:31;13.53;;;12.10;;
10144;SDS011;5113;41.822;23.564;2023-08-21T05:49:38;14.97;;;12.30;;
10144;SDS011;5113;41.822;23.564;2023-08-21T05:52:45;12.50;;;11.20;;
10144;SDS011;5113;41.822;23.564;2023-08-21T05:55:51;12.67;;;11.00;;
10144;SDS011;5113;41.822;23.564;2023-08-21T05:58:58;14.43;;;10.70;;
10144;SDS011;5113;41.822;23.564;2023-08-21T06:02:05;12.37;;;10.50;;
10144;SDS011;5113;41.822;23.564;2023-08-21T06:05:13;11.70;;;10.60;;
10144;SDS011;5113;41.822;23.564;2023-08-21T06:08:19;10.80;;;9.50;;
10144;SDS011;5113;41.822;23.564;2023-08-21T06:11:26;11.30;;;9.37;;
10144;SDS011;5113;41.822;23.564;2023-08-21T06:14:33;10.20;;;9.20;;
10144;SDS011;5113;41.822;23.564;2023-08-21T06:17:40;11.90;;;9.17;;
10144;SDS011;5113;41.822;23.564;2023-08-21T06:20:48;13.23;;;9.40;;
10144;SDS011;5113;41.822;23.564;2023-08-21T06:23:58;11.97;;;10.20;;
10144;SDS011;5113;41.822;23.564;2023-08-21T06:27:05;10.40;;;9.47;;
10144;SDS011;5113;41.822;23.564;2023-08-21T06:30:12;12.40;;;11.17;;
10144;SDS011;5113;41.822;23.564;2023-08-21T06:33:21;10.27;;;9.33;;
10144;SDS011;5113;41.822;23.564;2023-08-21T06:36:29;10.47;;;9.40;;
10144;SDS011;5113;41.822;23.564;2023-08-21T06:39:35;10.33;;;9.30;;
10144;SDS011;5113;41.822;23.564;2023-08-21T06:42:42;9.70;;;8.80;;
10144;SDS011;5113;41.822;23.564;2023-08-21T06:45:48;10.10;;;9.10;;
10144;SDS011;5113;41.822;23.564;2023-08-21T06:48:55;9.80;;;8.90;;
10144;SDS011;5113;41.822;23.564;2023-08-21T06:52:03;12.17;;;9.23;;
10144;SDS011;5113;41.822;23.564;2023-08-21T06:55:09;9.90;;;8.93;;
10144;SDS011;5113;41.822;23.564;2023-08-21T06:58:16;10.07;;;9.07;;
10144;SDS011;5113;41.822;23.564;2023-08-21T07:01:22;10.40;;;9.45;;
10144;SDS011;5113;41.822;23.564;2023-08-21T07:04:29;8.32;;;7.63;;
10144;SDS011;5113;41.822;23.564;2023-08-21T07:07:39;8.55;;;7.75;;
10144;SDS011;5113;41.822;23.564;2023-08-21T07:10:45;9.40;;;8.50;;
10144;SDS011;5113;41.822;23.564;2023-08-21T07:13:52;8.20;;;7.50;;
10144;SDS011;5113;41.822;23.564;2023-08-21T07:16:58;9.73;;;8.93;;
10144;SDS011;5113;41.822;23.564;2023-08-21T07:20:06;9.82;;;8.85;;
10144;SDS011;5113;41.822;23.564;2023-08-21T07:23:14;9.02;;;8.10;;
10144;SDS011;5113;41.822;23.564;2023-08-21T07:26:20;9.75;;;8.75;;
10144;SDS011;5113;41.822;23.564;2023-08-21T07:29:26;9.10;;;8.32;;
10144;SDS011;5113;41.822;23.564;2023-08-21T07:32:33;8.95;;;8.05;;
10144;SDS011;5113;41.822;23.564;2023-08-21T07:35:40;10.50;;;7.97;;
10144;SDS011;5113;41.822;23.564;2023-08-21T07:38:47;8.65;;;7.82;;
10144;SDS011;5113;41.822;23.564;2023-08-21T07:41:53;9.13;;;8.23;;
10144;SDS011;5113;41.822;23.564;2023-08-21T07:45:00;8.85;;;8.05;;
10144;SDS011;5113;41.822;23.564;2023-08-21T07:48:07;9.93;;;8.10;;
10144;SDS011;5113;41.822;23.564;2023-08-21T07:51:18;5.93;;;5.32;;
10144;SDS011;5113;41.822;23.564;2023-08-21T07:54:26;12.57;;;7.97;;
10144;SDS011;5113;41.822;23.564;2023-08-21T07:57:32;7.47;;;6.78;;
10144;SDS011;5113;41.822;23.564;2023-08-21T08:00:38;6.68;;;6.07;;
10144;SDS011;5113;41.822;23.564;2023-08-21T08:03:45;5.72;;;5.28;;
10144;SDS011;5113;41.822;23.564;2023-08-21T08:06:52;6.03;;;5.10;;
10144;SDS011;5113;41.822;23.564;2023-08-21T08:09:59;5.43;;;4.95;;
10144;SDS011;5113;41.822;23.564;2023-08-21T08:13:06;9.20;;;5.88;;
10144;SDS011;5113;41.822;23.564;2023-08-21T08:16:12;7.57;;;5.60;;
10144;SDS011;5113;41.822;23.564;2023-08-21T08:19:19;5.65;;;5.15;;
10144;SDS011;5113;41.822;23.564;2023-08-21T08:22:25;7.78;;;5.57;;
10144;SDS011;5113;41.822;23.564;2023-08-21T08:25:33;6.38;;;5.47;;
10144;SDS011;5113;41.822;23.564;2023-08-21T08:28:40;9.77;;;6.60;;
10144;SDS011;5113;41.822;23.564;2023-08-21T08:31:46;11.07;;;5.65;;
10144;SDS011;5113;41.822;23.564;2023-08-21T08:34:53;6.03;;;5.53;;
10144;SDS011;5113;41.822;23.564;2023-08-21T08:37:59;5.57;;;4.78;;
10144;SDS011;5113;41.822;23.564;2023-08-21T08:41:10;6.65;;;4.70;;
10144;SDS011;5113;41.822;23.564;2023-08-21T08:44:20;6.03;;;4.70;;
10144;SDS011;5113;41.822;23.564;2023-08-21T08:47:31;5.82;;;5.03;;
10144;SDS011;5113;41.822;23.564;2023-08-21T08:50:39;5.18;;;4.68;;
10144;SDS011;5113;41.822;23.564;2023-08-21T08:53:47;5.43;;;4.88;;
10144;SDS011;5113;41.822;23.564;2023-08-21T08:56:55;9.50;;;5.63;;
10144;SDS011;5113;41.822;23.564;2023-08-21T09:00:02;5.63;;;5.15;;
10144;SDS011;5113;41.822;23.564;2023-08-21T09:03:09;5.38;;;4.50;;
10144;SDS011;5113;41.822;23.564;2023-08-21T09:06:16;7.22;;;4.88;;
10144;SDS011;5113;41.822;23.564;2023-08-21T09:09:23;5.90;;;4.25;;
10144;SDS011;5113;41.822;23.564;2023-08-21T09:12:32;5.03;;;4.50;;
10144;SDS011;5113;41.822;23.564;2023-08-21T09:15:40;7.45;;;5.63;;
10144;SDS011;5113;41.822;23.564;2023-08-21T09:18:47;10.93;;;4.80;;
10144;SDS011;5113;41.822;23.564;2023-08-21T09:21:53;4.75;;;4.40;;
10144;SDS011;5113;41.822;23.564;2023-08-21T09:25:00;5.95;;;4.82;;
10144;SDS011;5113;41.822;23.564;2023-08-21T09:28:12;5.28;;;4.28;;
10144;SDS011;5113;41.822;23.564;2023-08-21T09:31:21;6.25;;;5.45;;
10144;SDS011;5113;41.822;23.564;2023-08-21T09:34:33;5.03;;;4.63;;
10144;SDS011;5113;41.822;23.564;2023-08-21T09:37:40;8.20;;;4.80;;
10144;SDS011;5113;41.822;23.564;2023-08-21T09:40:52;6.60;;;4.10;;
10144;SDS011;5113;41.822;23.564;2023-08-21T09:44:01;7.75;;;5.20;;
10144;SDS011;5113;41.822;23.564;2023-08-21T09:47:10;5.88;;;5.28;;
10144;SDS011;5113;41.822;23.564;2023-08-21T09:50:17;8.15;;;4.85;;
10144;SDS011;5113;41.822;23.564;2023-08-21T09:53:24;9.30;;;4.88;;
10144;SDS011;5113;41.822;23.564;2023-08-21T09:56:30;5.30;;;4.90;;
10144;SDS011;5113;41.822;23.564;2023-08-21T09:59:39;5.38;;;4.88;;
10144;SDS011;5113;41.822;23.564;2023-08-21T10:02:49;6.97;;;4.68;;
10144;SDS011;5113;41.822;23.564;2023-08-21T10:05:57;6.30;;;4.75;;
10144;SDS011;5113;41.822;23.564;2023-08-21T10:09:04;4.60;;;4.30;;
10144;SDS011;5113;41.822;23.564;2023-08-21T10:12:12;8.15;;;5.55;;
10144;SDS011;5113;41.822;23.564;2023-08-21T10:15:21;5.53;;;4.65;;
10144;SDS011;5113;41.822;23.564;2023-08-21T10:18:29;6.68;;;4.72;;
10144;SDS011;5113;41.822;23.564;2023-08-21T10:21:36;5.15;;;4.75;;
10144;SDS011;5113;41.822;23.564;2023-08-21T10:24:43;4.97;;;4.57;;
10144;SDS011;5113;41.822;23.564;2023-08-21T10:27:51;5.88;;;4.68;;
10144;SDS011;5113;41.822;23.564;2023-08-21T10:34:40;5.45;;;5.07;;
10144;SDS011;5113;41.822;23.564;2023-08-21T10:38:05;8.52;;;5.70;;
10144;SDS011;5113;41.822;23.564;2023-08-21T10:41:12;4.40;;;4.10;;
10144;SDS011;5113;41.822;23.564;2023-08-21T10:44:23;5.03;;;4.53;;
10144;SDS011;5113;41.822;23.564;2023-08-21T10:47:40;4.38;;;4.07;;
10144;SDS011;5113;41.822;23.564;2023-08-21T10:50:47;6.40;;;4.80;;
10144;SDS011;5113;41.822;23.564;2023-08-21T10:53:54;5.35;;;4.95;;
10144;SDS011;5113;41.822;23.564;2023-08-21T10:57:01;5.63;;;5.13;;
10144;SDS011;5113;41.822;23.564;2023-08-21T11:00:08;7.57;;;4.55;;
10144;SDS011;5113;41.822;23.564;2023-08-21T11:03:16;5.60;;;5.07;;
10144;SDS011;5113;41.822;23.564;2023-08-21T11:06:23;5.35;;;4.65;;
10144;SDS011;5113;41.822;23.564;2023-08-21T11:09:30;5.00;;;4.60;;
10144;SDS011;5113;41.822;23.564;2023-08-21T11:12:36;7.60;;;5.40;;
10144;SDS011;5113;41.822;23.564;2023-08-21T11:15:44;4.82;;;4.43;;
10144;SDS011;5113;41.822;23.564;2023-08-21T11:18:51;5.18;;;4.43;;
10144;SDS011;5113;41.822;23.564;2023-08-21T11:21:59;6.55;;;5.18;;
10144;SDS011;5113;41.822;23.564;2023-08-21T11:25:08;7.03;;;4.63;;
10144;SDS011;5113;41.822;23.564;2023-08-21T11:28:16;4.97;;;4.57;;
10144;SDS011;5113;41.822;23.564;2023-08-21T11:31:22;6.45;;;5.85;;
10144;SDS011;5113;41.822;23.564;2023-08-21T11:34:28;5.38;;;4.47;;
10144;SDS011;5113;41.822;23.564;2023-08-21T11:37:42;5.65;;;5.15;;
10144;SDS011;5113;41.822;23.564;2023-08-21T11:40:51;5.30;;;4.80;;
10144;SDS011;5113;41.822;23.564;2023-08-21T11:44:02;4.65;;;4.25;;
10144;SDS011;5113;41.822;23.564;2023-08-21T11:47:09;5.78;;;4.90;;
10144;SDS011;5113;41.822;23.564;2023-08-21T11:50:15;5.35;;;4.88;;
10144;SDS011;5113;41.822;23.564;2023-08-21T11:53:32;5.35;;;4.85;;
10144;SDS011;5113;41.822;23.564;2023-08-21T11:56:41;6.82;;;4.68;;
10144;SDS011;5113;41.822;23.564;2023-08-21T11:59:50;5.13;;;4.72;;
10144;SDS011;5113;41.822;23.564;2023-08-21T12:02:58;5.75;;;4.78;;
10144;SDS011;5113;41.822;23.564;2023-08-21T12:06:08;5.53;;;4.60;;
10144;SDS011;5113;41.822;23.564;2023-08-21T12:09:16;4.97;;;4.57;;
10144;SDS011;5113;41.822;23.564;2023-08-21T12:12:24;5.15;;;4.78;;
10144;SDS011;5113;41.822;23.564;2023-08-21T12:15:30;5.13;;;4.68;;
10144;SDS011;5113;41.822;23.564;2023-08-21T12:18:37;6.43;;;4.35;;
10144;SDS011;5113;41.822;23.564;2023-08-21T12:21:43;5.55;;;5.15;;
10144;SDS011;5113;41.822;23.564;2023-08-21T12:24:51;5.30;;;4.90;;
10144;SDS011;5113;41.822;23.564;2023-08-21T12:27:58;10.40;;;7.55;;
10144;SDS011;5113;41.822;23.564;2023-08-21T12:31:13;6.18;;;5.68;;
10144;SDS011;5113;41.822;23.564;2023-08-21T12:34:20;5.32;;;4.93;;
10144;SDS011;5113;41.822;23.564;2023-08-21T12:37:26;5.63;;;5.15;;
10144;SDS011;5113;41.822;23.564;2023-08-21T12:40:37;5.45;;;4.95;;
10144;SDS011;5113;41.822;23.564;2023-08-21T12:43:43;4.97;;;4.57;;
10144;SDS011;5113;41.822;23.564;2023-08-21T12:46:50;7.13;;;4.97;;
10144;SDS011;5113;41.822;23.564;2023-08-21T12:49:56;6.18;;;5.45;;
10144;SDS011;5113;41.822;23.564;2023-08-21T12:53:03;5.65;;;5.05;;
10144;SDS011;5113;41.822;23.564;2023-08-21T12:56:11;5.72;;;4.80;;
10144;SDS011;5113;41.822;23.564;2023-08-21T12:59:17;5.40;;;4.97;;
10144;SDS011;5113;41.822;23.564;2023-08-21T13:02:24;7.82;;;5.18;;
10144;SDS011;5113;41.822;23.564;2023-08-21T13:05:31;5.82;;;4.72;;
10144;SDS011;5113;41.822;23.564;2023-08-21T13:08:39;7.32;;;5.38;;
10144;SDS011;5113;41.822;23.564;2023-08-21T13:11:47;6.68;;;5.68;;
10144;SDS011;5113;41.822;23.564;2023-08-21T13:14:54;5.90;;;5.40;;
10144;SDS011;5113;41.822;23.564;2023-08-21T13:18:00;5.65;;;5.25;;
10144;SDS011;5113;41.822;23.564;2023-08-21T13:21:07;4.97;;;4.65;;
10144;SDS011;5113;41.822;23.564;2023-08-21T13:24:14;6.05;;;5.45;;
10144;SDS011;5113;41.822;23.564;2023-08-21T13:27:21;6.03;;;5.05;;
10144;SDS011;5113;41.822;23.564;2023-08-21T13:30:28;5.70;;;5.25;;
10144;SDS011;5113;41.822;23.564;2023-08-21T13:33:43;5.75;;;5.25;;
10144;SDS011;5113;41.822;23.564;2023-08-21T13:36:54;6.28;;;5.68;;
10144;SDS011;5113;41.822;23.564;2023-08-21T13:40:00;6.07;;;5.50;;
10144;SDS011;5113;41.822;23.564;2023-08-21T13:43:18;6.07;;;5.47;;
10144;SDS011;5113;41.822;23.564;2023-08-21T13:46:28;5.70;;;5.03;;
10144;SDS011;5113;41.822;23.564;2023-08-21T13:49:35;5.88;;;5.30;;
10144;SDS011;5113;41.822;23.564;2023-08-21T13:52:42;7.75;;;5.82;;
10144;SDS011;5113;41.822;23.564;2023-08-21T13:55:49;5.78;;;5.25;;
10144;SDS011;5113;41.822;23.564;2023-08-21T13:58:58;6.38;;;5.72;;
10144;SDS011;5113;41.822;23.564;2023-08-21T14:02:04;5.82;;;5.32;;
10144;SDS011;5113;41.822;23.564;2023-08-21T14:05:11;5.70;;;5.30;;
10144;SDS011;5113;41.822;23.564;2023-08-21T14:08:17;5.80;;;5.25;;
10144;SDS011;5113;41.822;23.564;2023-08-21T14:11:24;9.43;;;5.32;;
10144;SDS011;5113;41.822;23.564;2023-08-21T14:14:32;7.10;;;5.35;;
10144;SDS011;5113;41.822;23.564;2023-08-21T14:17:38;5.80;;;5.25;;
10144;SDS011;5113;41.822;23.564;2023-08-21T14:20:47;7.00;;;6.38;;
10144;SDS011;5113;41.822;23.564;2023-08-21T14:23:53;8.05;;;6.05;;
10144;SDS011;5113;41.822;23.564;2023-08-21T14:30:26;6.53;;;5.88;;
10144;SDS011;5113;41.822;23.564;2023-08-21T14:33:32;6.38;;;5.45;;
10144;SDS011;5113;41.822;23.564;2023-08-21T14:36:39;6.90;;;6.30;;
10144;SDS011;5113;41.822;23.564;2023-08-21T14:39:45;7.28;;;5.38;;
10144;SDS011;5113;41.822;23.564;2023-08-21T14:42:52;9.75;;;5.82;;
10144;SDS011;5113;41.822;23.564;2023-08-21T14:46:00;5.45;;;4.93;;
10144;SDS011;5113;41.822;23.564;2023-08-21T14:49:08;7.32;;;5.13;;
10144;SDS011;5113;41.822;23.564;2023-08-21T14:52:15;5.57;;;5.07;;
10144;SDS011;5113;41.822;23.564;2023-08-21T14:55:21;6.03;;;5.28;;
10144;SDS011;5113;41.822;23.564;2023-08-21T14:58:28;6.32;;;5.82;;
10144;SDS011;5113;41.822;23.564;2023-08-21T15:01:36;9.88;;;6.10;;
10144;SDS011;5113;41.822;23.564;2023-08-21T15:04:43;8.70;;;6.88;;
10144;SDS011;5113;41.822;23.564;2023-08-21T15:07:50;11.40;;;7.43;;
10144;SDS011;5113;41.822;23.564;2023-08-21T15:10:58;6.47;;;5.97;;
10144;SDS011;5113;41.822;23.564;2023-08-21T15:14:09;5.90;;;5.40;;
10144;SDS011;5113;41.822;23.564;2023-08-21T15:17:18;6.57;;;5.85;;
10144;SDS011;5113;41.822;23.564;2023-08-21T15:20:25;6.03;;;5.05;;
10144;SDS011;5113;41.822;23.564;2023-08-21T15:23:32;7.88;;;5.45;;
10144;SDS011;5113;41.822;23.564;2023-08-21T15:26:38;7.80;;;5.60;;
10144;SDS011;5113;41.822;23.564;2023-08-21T15:29:45;6.30;;;5.57;;
10144;SDS011;5113;41.822;23.564;2023-08-21T15:32:53;5.63;;;5.13;;
10144;SDS011;5113;41.822;23.564;2023-08-21T15:35:59;18.30;;;13.27;;
10144;SDS011;5113;41.822;23.564;2023-08-21T15:39:05;29.95;;;15.07;;
10144;SDS011;5113;41.822;23.564;2023-08-21T15:42:12;6.15;;;5.65;;
10144;SDS011;5113;41.822;23.564;2023-08-21T15:45:18;15.00;;;9.05;;
10144;SDS011;5113;41.822;23.564;2023-08-21T15:48:28;13.93;;;8.73;;
10144;SDS011;5113;41.822;23.564;2023-08-21T15:51:34;11.20;;;8.48;;
10144;SDS011;5113;41.822;23.564;2023-08-21T15:54:41;59.55;;;23.88;;
10144;SDS011;5113;41.822;23.564;2023-08-21T15:57:47;35.55;;;13.05;;
10144;SDS011;5113;41.822;23.564;2023-08-21T16:00:53;96.50;;;40.13;;
10144;SDS011;5113;41.822;23.564;2023-08-21T16:04:01;180.65;;;57.47;;
10144;SDS011;5113;41.822;23.564;2023-08-21T16:07:08;74.90;;;28.83;;
10144;SDS011;5113;41.822;23.564;2023-08-21T16:10:14;21.27;;;13.88;;
10144;SDS011;5113;41.822;23.564;2023-08-21T16:13:21;9.63;;;8.20;;
10144;SDS011;5113;41.822;23.564;2023-08-21T16:16:27;8.45;;;7.35;;
10144;SDS011;5113;41.822;23.564;2023-08-21T16:19:35;8.40;;;7.03;;
10144;SDS011;5113;41.822;23.564;2023-08-21T16:22:43;7.03;;;6.32;;
10144;SDS011;5113;41.822;23.564;2023-08-21T16:25:49;5.88;;;5.47;;
10144;SDS011;5113;41.822;23.564;2023-08-21T16:28:56;11.13;;;7.90;;
10144;SDS011;5113;41.822;23.564;2023-08-21T16:32:03;10.55;;;7.88;;
10144;SDS011;5113;41.822;23.564;2023-08-21T16:35:11;12.82;;;9.93;;
10144;SDS011;5113;41.822;23.564;2023-08-21T16:38:17;9.93;;;8.20;;
10144;SDS011;5113;41.822;23.564;2023-08-21T16:41:23;8.98;;;8.10;;
10144;SDS011;5113;41.822;23.564;2023-08-21T16:44:30;7.90;;;7.15;;
10144;SDS011;5113;41.822;23.564;2023-08-21T16:47:38;7.28;;;6.38;;
10144;SDS011;5113;41.822;23.564;2023-08-21T16:50:46;14.50;;;12.23;;
10144;SDS011;5113;41.822;23.564;2023-08-21T16:53:53;11.35;;;8.05;;
10144;SDS011;5113;41.822;23.564;2023-08-21T16:57:01;7.97;;;7.28;;
10144;SDS011;5113;41.822;23.564;2023-08-21T17:00:08;9.75;;;7.78;;
10144;SDS011;5113;41.822;23.564;2023-08-21T17:03:16;11.25;;;9.73;;
10144;SDS011;5113;41.822;23.564;2023-08-21T17:06:24;10.77;;;8.40;;
10144;SDS011;5113;41.822;23.564;2023-08-21T17:09:30;10.10;;;8.43;;
10144;SDS011;5113;41.822;23.564;2023-08-21T17:12:37;12.90;;;8.48;;
10144;SDS011;5113;41.822;23.564;2023-08-21T17:15:43;8.73;;;7.75;;
10144;SDS011;5113;41.822;23.564;2023-08-21T17:18:54;11.95;;;9.20;;
10144;SDS011;5113;41.822;23.564;2023-08-21T17:22:02;10.55;;;9.45;;
10144;SDS011;5113;41.822;23.564;2023-08-21T17:25:08;18.50;;;10.93;;
10144;SDS011;5113;41.822;23.564;2023-08-21T17:28:18;11.68;;;10.23;;
10144;SDS011;5113;41.822;23.564;2023-08-21T17:31:25;14.23;;;9.93;;
10144;SDS011;5113;41.822;23.564;2023-08-21T17:34:31;9.50;;;8.55;;
10144;SDS011;5113;41.822;23.564;2023-08-21T17:37:39;13.60;;;9.32;;
10144;SDS011;5113;41.822;23.564;2023-08-21T17:40:46;10.27;;;8.52;;
10144;SDS011;5113;41.822;23.564;2023-08-21T17:43:52;13.20;;;8.98;;
10144;SDS011;5113;41.822;23.564;2023-08-21T17:46:59;14.70;;;8.85;;
10144;SDS011;5113;41.822;23.564;2023-08-21T17:50:06;9.55;;;8.57;;
10144;SDS011;5113;41.822;23.564;2023-08-21T17:53:14;12.57;;;10.07;;
10144;SDS011;5113;41.822;23.564;2023-08-21T17:56:21;25.90;;;13.88;;
10144;SDS011;5113;41.822;23.564;2023-08-21T17:59:27;16.33;;;12.27;;
10144;SDS011;5113;41.822;23.564;2023-08-21T18:02:33;14.80;;;10.45;;
10144;SDS011;5113;41.822;23.564;2023-08-21T18:05:40;11.32;;;9.13;;
10144;SDS011;5113;41.822;23.564;2023-08-21T18:08:47;16.55;;;10.98;;
10144;SDS011;5113;41.822;23.564;2023-08-21T18:11:54;13.43;;;10.10;;
10144;SDS011;5113;41.822;23.564;2023-08-21T18:15:01;14.55;;;10.63;;
10144;SDS011;5113;41.822;23.564;2023-08-21T18:18:08;15.68;;;10.13;;
10144;SDS011;5113;41.822;23.564;2023-08-21T18:21:14;10.35;;;8.95;;
10144;SDS011;5113;41.822;23.564;2023-08-21T18:24:22;12.20;;;8.00;;
10144;SDS011;5113;41.822;23.564;2023-08-21T18:27:28;12.37;;;10.27;;
10144;SDS011;5113;41.822;23.564;2023-08-21T18:30:35;19.60;;;9.80;;
10144;SDS011;5113;41.822;23.564;2023-08-21T18:33:41;11.97;;;8.60;;
10144;SDS011;5113;41.822;23.564;2023-08-21T18:36:48;12.07;;;9.93;;
10144;SDS011;5113;41.822;23.564;2023-08-21T18:39:56;10.37;;;9.17;;
10144;SDS011;5113;41.822;23.564;2023-08-21T18:43:03;8.77;;;7.97;;
10144;SDS011;5113;41.822;23.564;2023-08-21T18:46:09;12.93;;;9.50;;